Time;durP1;ratioP1;P1;durP2;ratioP2;P2;SDS_P1;SDS_P2;PMS_P1;PMS_P2;Temp;Humidity;BMP_temperature;BMP_pressure;BME280_temperature;BME280_humidity;BME280_pressure;Samples;Min_cycle;Max_cycle;Signal;HPM_P1;HPM_P2
2022/09/28 00:01:53;;;;;;;2.40;2.20;;;;;;;;;;4989529;28;20613;-54
2022/09/28 00:04:26;;;;;;;2.30;2.10;;;;;;;;;;4988730;28;20171;-55
2022/09/28 00:06:52;;;;;;;2.60;2.40;;;;;;;;;;4978986;28;20198;-55
2022/09/28 00:09:18;;;;;;;2.40;2.20;;;;;;;;;;4987219;28;20606;-55
2022/09/28 00:11:45;;;;;;;2.60;2.40;;;;;;;;;;4990929;28;20266;-55
2022/09/28 00:14:11;;;;;;;2.07;1.90;;;;;;;;;;4988982;28;20592;-55
2022/09/28 00:16:39;;;;;;;2.17;2.00;;;;;;;;;;4994929;28;20258;-55
2022/09/28 00:19:05;;;;;;;2.50;2.30;;;;;;;;;;4988618;28;20182;-55
2022/09/28 00:21:33;;;;;;;2.23;1.90;;;;;;;;;;4997520;28;20243;-54
2022/09/28 00:24:17;;;;;;;2.27;2.03;;;;;;;;;;4987153;28;20259;-54
2022/09/28 00:26:46;;;;;;;2.47;2.13;;;;;;;;;;4987571;28;20194;-54
2022/09/28 00:29:19;;;;;;;2.20;2.00;;;;;;;;;;4996097;28;20179;-55
2022/09/28 00:31:46;;;;;;;2.40;2.07;;;;;;;;;;4974931;28;20731;-54
2022/09/28 00:34:12;;;;;;;2.27;1.90;;;;;;;;;;4986087;28;20171;-55
2022/09/28 00:36:38;;;;;;;2.40;2.20;;;;;;;;;;4999120;28;20580;-54
2022/09/28 00:39:05;;;;;;;2.60;2.30;;;;;;;;;;4995390;28;20706;-55
2022/09/28 00:41:31;;;;;;;3.30;2.27;;;;;;;;;;4977962;28;20196;-55
2022/09/28 00:44:16;;;;;;;2.10;1.90;;;;;;;;;;4989041;28;20406;-54
2022/09/28 00:46:42;;;;;;;2.40;2.20;;;;;;;;;;4989644;28;20191;-55
2022/09/28 00:49:11;;;;;;;2.83;2.63;;;;;;;;;;4980053;28;20572;-55
2022/09/28 00:51:38;;;;;;;2.23;2.03;;;;;;;;;;4993039;28;20182;-54
2022/09/28 00:54:05;;;;;;;2.30;2.10;;;;;;;;;;4988633;28;20706;-54
2022/09/28 00:56:32;;;;;;;3.17;2.63;;;;;;;;;;4982658;28;20576;-54
2022/09/28 00:58:59;;;;;;;2.63;2.27;;;;;;;;;;4987914;28;20187;-55
2022/09/28 01:01:26;;;;;;;3.07;2.30;;;;;;;;;;4987216;28;20737;-55
2022/09/28 01:03:53;;;;;;;2.80;2.10;;;;;;;;;;4996753;28;20179;-55
2022/09/28 01:06:21;;;;;;;2.30;2.10;;;;;;;;;;5002139;28;20209;-54
2022/09/28 01:08:50;;;;;;;2.80;2.37;;;;;;;;;;4991676;28;20175;-55
2022/09/28 01:11:47;;;;;;;2.53;2.30;;;;;;;;;;4992564;28;20175;-55
2022/09/28 01:14:14;;;;;;;2.27;2.07;;;;;;;;;;4998123;28;20190;-55
2022/09/28 01:16:53;;;;;;;2.80;2.03;;;;;;;;;;4990380;28;20193;-56
2022/09/28 01:19:31;;;;;;;3.50;2.10;;;;;;;;;;4996950;28;20178;-55
2022/09/28 01:22:13;;;;;;;2.60;2.40;;;;;;;;;;4974832;28;20187;-54
2022/09/28 01:24:39;;;;;;;2.30;2.10;;;;;;;;;;4988118;28;20412;-55
2022/09/28 01:27:12;;;;;;;2.83;2.33;;;;;;;;;;4999152;28;20195;-55
2022/09/28 01:29:48;;;;;;;2.30;2.10;;;;;;;;;;4972613;28;20222;-55
2022/09/28 01:32:22;;;;;;;3.17;2.40;;;;;;;;;;4991203;28;20611;-54
2022/09/28 01:34:57;;;;;;;2.97;2.63;;;;;;;;;;4994805;28;20655;-55
2022/09/28 01:37:26;;;;;;;2.80;2.53;;;;;;;;;;4986526;28;20625;-55
2022/09/28 01:39:54;;;;;;;3.80;2.87;;;;;;;;;;4997888;28;20186;-55
2022/09/28 01:42:23;;;;;;;3.97;2.83;;;;;;;;;;4986701;28;20175;-55
2022/09/28 01:44:51;;;;;;;3.20;2.77;;;;;;;;;;5001039;28;20546;-55
2022/09/28 01:47:21;;;;;;;2.83;2.40;;;;;;;;;;4987577;28;20218;-55
2022/09/28 01:49:50;;;;;;;2.43;2.23;;;;;;;;;;4982265;28;20183;-54
2022/09/28 01:52:19;;;;;;;3.07;2.77;;;;;;;;;;4983635;28;20210;-55
2022/09/28 01:54:51;;;;;;;2.73;2.33;;;;;;;;;;4990510;28;20626;-55
2022/09/28 01:57:19;;;;;;;2.70;2.50;;;;;;;;;;4997694;28;20229;-54
2022/09/28 01:59:55;;;;;;;3.10;2.77;;;;;;;;;;4986970;28;20242;-54
2022/09/28 02:02:26;;;;;;;3.13;2.80;;;;;;;;;;4976208;28;20218;-55
2022/09/28 02:04:57;;;;;;;3.10;2.80;;;;;;;;;;4987612;28;20194;-56
2022/09/28 02:07:34;;;;;;;3.10;2.90;;;;;;;;;;4979392;28;20581;-55
2022/09/28 02:10:02;;;;;;;3.70;3.40;;;;;;;;;;4991556;28;20183;-55
2022/09/28 02:12:34;;;;;;;5.40;3.63;;;;;;;;;;4997010;28;20754;-55
2022/09/28 02:15:20;;;;;;;4.10;3.20;;;;;;;;;;4986645;28;20179;-54
2022/09/28 02:17:47;;;;;;;4.60;3.20;;;;;;;;;;4994782;28;20187;-54
2022/09/28 02:20:13;;;;;;;3.17;2.97;;;;;;;;;;4990967;28;20221;-54
2022/09/28 02:22:48;;;;;;;4.33;3.73;;;;;;;;;;4979347;28;20183;-55
2022/09/28 02:25:26;;;;;;;4.17;3.77;;;;;;;;;;4994673;28;20221;-55
2022/09/28 02:28:00;;;;;;;4.00;3.60;;;;;;;;;;4988136;28;20215;-54
2022/09/28 02:30:26;;;;;;;4.43;4.03;;;;;;;;;;4986990;28;20193;-55
2022/09/28 02:32:54;;;;;;;3.93;3.63;;;;;;;;;;4998817;28;20254;-53
2022/09/28 02:35:20;;;;;;;4.07;3.67;;;;;;;;;;4991913;28;20641;-55
2022/09/28 02:37:47;;;;;;;4.87;4.47;;;;;;;;;;4991396;28;20211;-55
2022/09/28 02:40:13;;;;;;;4.40;4.00;;;;;;;;;;4999036;28;20718;-54
2022/09/28 02:42:45;;;;;;;4.60;4.17;;;;;;;;;;4991174;28;20311;-55
2022/09/28 02:45:36;;;;;;;4.70;4.30;;;;;;;;;;4993325;28;20179;-54
2022/09/28 02:48:02;;;;;;;5.50;4.73;;;;;;;;;;4994177;28;20594;-54
2022/09/28 02:50:37;;;;;;;4.13;3.83;;;;;;;;;;4993050;28;20637;-55
2022/09/28 02:53:08;;;;;;;4.30;4.00;;;;;;;;;;4995265;28;20181;-56
2022/09/28 02:56:03;;;;;;;4.37;4.00;;;;;;;;;;4978017;28;20459;-54
2022/09/28 02:58:38;;;;;;;4.90;4.40;;;;;;;;;;4969954;28;20619;-55
2022/09/28 03:01:15;;;;;;;4.40;4.00;;;;;;;;;;4990046;28;20273;-55
2022/09/28 03:03:56;;;;;;;4.87;4.40;;;;;;;;;;4988822;28;20700;-55
2022/09/28 03:06:32;;;;;;;4.37;3.97;;;;;;;;;;4991262;28;20202;-55
2022/09/28 03:09:08;;;;;;;4.13;3.80;;;;;;;;;;4990077;28;20570;-54
2022/09/28 03:11:37;;;;;;;3.90;3.60;;;;;;;;;;4993008;28;20175;-54
2022/09/28 03:14:04;;;;;;;4.73;4.30;;;;;;;;;;4989173;28;20687;-54
2022/09/28 03:16:31;;;;;;;5.20;4.80;;;;;;;;;;4994656;28;20658;-56
2022/09/28 03:18:57;;;;;;;4.60;4.17;;;;;;;;;;4974940;28;20664;-54
2022/09/28 03:21:23;;;;;;;4.90;4.40;;;;;;;;;;4974009;28;20175;-54
2022/09/28 03:23:49;;;;;;;4.37;3.97;;;;;;;;;;4998012;28;20709;-55
2022/09/28 03:26:15;;;;;;;4.03;3.33;;;;;;;;;;4983736;28;20229;-55
2022/09/28 03:28:42;;;;;;;4.70;4.30;;;;;;;;;;4995918;28;20182;-55
2022/09/28 03:31:08;;;;;;;5.53;5.00;;;;;;;;;;4988232;28;20175;-54
2022/09/28 03:33:34;;;;;;;4.27;3.87;;;;;;;;;;4991107;28;20175;-55
2022/09/28 03:36:00;;;;;;;4.67;4.17;;;;;;;;;;5003528;28;20183;-55
2022/09/28 03:38:32;;;;;;;8.07;4.00;;;;;;;;;;4997842;28;20565;-55
2022/09/28 03:40:59;;;;;;;4.80;4.40;;;;;;;;;;4973712;28;20439;-55
2022/09/28 03:43:26;;;;;;;4.60;4.20;;;;;;;;;;4989674;28;20230;-55
2022/09/28 03:45:56;;;;;;;4.20;3.80;;;;;;;;;;4989775;28;20187;-55
2022/09/28 03:48:27;;;;;;;5.63;4.73;;;;;;;;;;4969828;28;20634;-55
2022/09/28 03:50:57;;;;;;;4.50;4.10;;;;;;;;;;4988557;28;20172;-55
2022/09/28 03:53:23;;;;;;;5.77;4.83;;;;;;;;;;4989368;28;20237;-55
2022/09/28 03:55:51;;;;;;;4.53;4.13;;;;;;;;;;4990220;28;20578;-55
2022/09/28 03:58:18;;;;;;;4.77;4.37;;;;;;;;;;4989258;28;20199;-54
2022/09/28 04:00:44;;;;;;;4.33;3.93;;;;;;;;;;4989287;28;20179;-55
2022/09/28 04:03:10;;;;;;;5.73;5.33;;;;;;;;;;4996320;28;20178;-55
2022/09/28 04:05:36;;;;;;;5.20;4.80;;;;;;;;;;4990969;28;20171;-55
2022/09/28 04:08:02;;;;;;;4.63;4.23;;;;;;;;;;4988307;28;20226;-55
2022/09/28 04:10:28;;;;;;;4.83;4.43;;;;;;;;;;4988861;28;20183;-55
2022/09/28 04:12:55;;;;;;;5.27;4.77;;;;;;;;;;4966727;28;20193;-54
2022/09/28 04:15:21;;;;;;;5.03;4.50;;;;;;;;;;4990321;28;20693;-54
2022/09/28 04:17:47;;;;;;;5.17;4.50;;;;;;;;;;4995748;28;20186;-54
2022/09/28 04:20:14;;;;;;;5.00;4.53;;;;;;;;;;4995137;28;20197;-54
2022/09/28 04:22:40;;;;;;;5.33;4.80;;;;;;;;;;4984854;28;20194;-55
2022/09/28 04:25:06;;;;;;;6.40;5.80;;;;;;;;;;4985914;28;20179;-55
2022/09/28 04:30:17;;;;;;;5.03;4.63;;;;;;;;;;4979278;28;20677;-55
2022/09/28 04:32:45;;;;;;;6.43;5.80;;;;;;;;;;4995372;28;20728;-54
2022/09/28 04:35:14;;;;;;;5.63;5.13;;;;;;;;;;4964568;28;20183;-55
2022/09/28 04:37:40;;;;;;;6.77;6.13;;;;;;;;;;4986830;28;20612;-55
2022/09/28 04:40:08;;;;;;;7.90;6.70;;;;;;;;;;4990144;28;20513;-54
2022/09/28 04:42:37;;;;;;;8.10;7.40;;;;;;;;;;4987941;28;20827;-55
2022/09/28 04:45:04;;;;;;;7.87;7.20;;;;;;;;;;4993505;28;20228;-55
2022/09/28 04:47:36;;;;;;;7.53;6.83;;;;;;;;;;4995316;28;20198;-54
2022/09/28 04:50:02;;;;;;;8.17;7.43;;;;;;;;;;4989217;28;20172;-55
2022/09/28 04:52:28;;;;;;;8.87;8.10;;;;;;;;;;4987852;28;20179;-55
2022/09/28 04:54:54;;;;;;;8.73;7.83;;;;;;;;;;4999410;28;20181;-55
2022/09/28 04:57:23;;;;;;;7.67;6.97;;;;;;;;;;4986923;28;20201;-55
2022/09/28 04:59:49;;;;;;;7.73;6.93;;;;;;;;;;4988149;28;20645;-56
2022/09/28 05:02:16;;;;;;;9.13;8.43;;;;;;;;;;4986467;28;20175;-55
2022/09/28 05:04:42;;;;;;;8.00;7.20;;;;;;;;;;4989188;28;20171;-55
2022/09/28 05:07:08;;;;;;;7.77;7.07;;;;;;;;;;4983920;28;20195;-55
2022/09/28 05:09:34;;;;;;;8.53;7.73;;;;;;;;;;4988595;28;20221;-55
2022/09/28 05:12:00;;;;;;;8.67;7.80;;;;;;;;;;4989269;28;20553;-55
2022/09/28 05:14:26;;;;;;;8.97;8.17;;;;;;;;;;4985768;28;20199;-56
2022/09/28 05:16:52;;;;;;;7.83;7.13;;;;;;;;;;4985874;28;20688;-54
2022/09/28 05:19:19;;;;;;;7.83;7.13;;;;;;;;;;4991471;28;20641;-55
2022/09/28 05:21:45;;;;;;;8.53;7.60;;;;;;;;;;4993252;28;20265;-55
2022/09/28 05:24:12;;;;;;;8.33;7.30;;;;;;;;;;5002530;28;20210;-56
2022/09/28 05:26:38;;;;;;;8.07;7.07;;;;;;;;;;4988654;28;20211;-54
2022/09/28 05:29:12;;;;;;;7.70;7.00;;;;;;;;;;4989343;28;20542;-55
2022/09/28 05:31:45;;;;;;;8.57;7.60;;;;;;;;;;4982460;28;20580;-54
2022/09/28 05:34:18;;;;;;;8.03;7.23;;;;;;;;;;4986026;28;20615;-54
2022/09/28 05:36:44;;;;;;;8.70;7.90;;;;;;;;;;4984496;28;20389;-55
2022/09/28 05:39:10;;;;;;;9.67;7.13;;;;;;;;;;4986078;28;20160;-56
2022/09/28 05:41:37;;;;;;;8.70;7.97;;;;;;;;;;4980939;28;20486;-54
2022/09/28 05:44:03;;;;;;;9.53;8.53;;;;;;;;;;4981719;28;20183;-54
2022/09/28 05:46:29;;;;;;;8.83;7.93;;;;;;;;;;4985165;28;20245;-55
2022/09/28 05:48:55;;;;;;;7.40;6.70;;;;;;;;;;4998203;28;20661;-55
2022/09/28 05:51:23;;;;;;;8.53;7.73;;;;;;;;;;4984683;28;20180;-57
2022/09/28 05:53:49;;;;;;;9.30;7.63;;;;;;;;;;4994451;28;20234;-54
2022/09/28 05:56:16;;;;;;;9.83;8.03;;;;;;;;;;4985572;28;20190;-55
2022/09/28 05:58:42;;;;;;;10.90;8.33;;;;;;;;;;4987302;28;20268;-55
2022/09/28 06:01:08;;;;;;;9.83;7.30;;;;;;;;;;4983381;28;20649;-55
2022/09/28 06:03:34;;;;;;;8.07;7.37;;;;;;;;;;4986523;28;20708;-54
2022/09/28 06:06:03;;;;;;;9.47;8.57;;;;;;;;;;4987344;28;20681;-55
2022/09/28 06:08:33;;;;;;;8.30;7.53;;;;;;;;;;4981591;28;20551;-55
2022/09/28 06:11:02;;;;;;;8.50;7.80;;;;;;;;;;4988759;28;20175;-55
2022/09/28 06:13:29;;;;;;;9.03;7.60;;;;;;;;;;4992005;28;20614;-55
2022/09/28 06:15:55;;;;;;;12.87;7.23;;;;;;;;;;5002560;28;20186;-55
2022/09/28 06:18:23;;;;;;;8.17;6.90;;;;;;;;;;4989997;28;20171;-54
2022/09/28 06:20:49;;;;;;;8.60;7.80;;;;;;;;;;4986322;28;20187;-54
2022/09/28 06:23:15;;;;;;;8.20;7.40;;;;;;;;;;5006158;28;20233;-55
2022/09/28 06:25:42;;;;;;;8.03;7.20;;;;;;;;;;4974958;28;20701;-54
2022/09/28 06:28:12;;;;;;;8.20;7.40;;;;;;;;;;5011733;28;20194;-55
2022/09/28 06:30:38;;;;;;;10.50;8.37;;;;;;;;;;5001249;28;20175;-55
2022/09/28 06:33:05;;;;;;;9.23;8.33;;;;;;;;;;5003483;28;20390;-54
2022/09/28 06:35:34;;;;;;;8.93;8.03;;;;;;;;;;4997456;28;20187;-55
2022/09/28 06:38:00;;;;;;;10.67;8.03;;;;;;;;;;5002972;28;20207;-55
2022/09/28 06:40:27;;;;;;;8.80;7.73;;;;;;;;;;5003548;28;20269;-55
2022/09/28 06:42:59;;;;;;;8.80;7.90;;;;;;;;;;4996918;28;20506;-55
2022/09/28 06:45:26;;;;;;;7.87;7.10;;;;;;;;;;4993030;28;20252;-56
2022/09/28 06:47:53;;;;;;;8.33;7.43;;;;;;;;;;5001027;28;20207;-55
2022/09/28 06:50:19;;;;;;;8.53;7.73;;;;;;;;;;4986161;28;20183;-54
2022/09/28 06:52:45;;;;;;;7.90;7.00;;;;;;;;;;4998546;28;20174;-55
2022/09/28 06:55:11;;;;;;;7.30;6.57;;;;;;;;;;4990727;28;20191;-54
2022/09/28 06:57:37;;;;;;;7.73;6.93;;;;;;;;;;4995528;28;20657;-54
2022/09/28 07:00:03;;;;;;;7.33;6.63;;;;;;;;;;4994174;28;20187;-54
2022/09/28 07:02:30;;;;;;;6.60;5.90;;;;;;;;;;4991135;28;20189;-55
2022/09/28 07:04:56;;;;;;;7.37;6.67;;;;;;;;;;4992871;28;20187;-55
2022/09/28 07:07:22;;;;;;;8.53;7.03;;;;;;;;;;4991164;28;20238;-54
2022/09/28 07:09:52;;;;;;;7.00;6.30;;;;;;;;;;5002112;28;20175;-54
2022/09/28 07:12:18;;;;;;;7.23;6.53;;;;;;;;;;4992887;28;20171;-55
2022/09/28 07:14:44;;;;;;;6.60;5.97;;;;;;;;;;4990049;28;20179;-55
2022/09/28 07:17:10;;;;;;;6.77;6.13;;;;;;;;;;4986648;28;20543;-54
2022/09/28 07:19:36;;;;;;;7.27;5.60;;;;;;;;;;5010538;28;20606;-55
2022/09/28 07:22:02;;;;;;;7.23;6.17;;;;;;;;;;4994088;28;20234;-54
2022/09/28 07:24:29;;;;;;;7.07;5.23;;;;;;;;;;4998211;28;20523;-55
2022/09/28 07:26:55;;;;;;;6.00;5.40;;;;;;;;;;4987227;28;20210;-56
2022/09/28 07:29:21;;;;;;;8.50;5.67;;;;;;;;;;4990153;28;20705;-55
2022/09/28 07:31:47;;;;;;;5.50;5.03;;;;;;;;;;4987195;28;20370;-55
2022/09/28 07:34:13;;;;;;;5.90;5.30;;;;;;;;;;4988106;28;20262;-56
2022/09/28 07:36:39;;;;;;;5.33;4.83;;;;;;;;;;4989961;28;20164;-55
2022/09/28 07:39:05;;;;;;;5.63;5.13;;;;;;;;;;4991131;28;20194;-55
2022/09/28 07:41:31;;;;;;;6.07;5.47;;;;;;;;;;4990014;28;20187;-54
2022/09/28 07:44:04;;;;;;;5.27;4.73;;;;;;;;;;4987564;28;20194;-55
2022/09/28 07:46:34;;;;;;;5.50;4.60;;;;;;;;;;4986904;28;20214;-54
2022/09/28 07:49:00;;;;;;;5.70;4.93;;;;;;;;;;4980478;28;20179;-55
2022/09/28 07:51:26;;;;;;;5.13;4.73;;;;;;;;;;4990517;28;20171;-54
2022/09/28 07:53:55;;;;;;;7.57;4.70;;;;;;;;;;4995953;28;20637;-55
2022/09/28 07:56:21;;;;;;;4.90;4.50;;;;;;;;;;4992775;28;20700;-55
2022/09/28 07:58:48;;;;;;;4.20;3.90;;;;;;;;;;5004847;28;20191;-54
2022/09/28 08:01:15;;;;;;;5.00;4.50;;;;;;;;;;4988429;28;20180;-55
2022/09/28 08:03:46;;;;;;;5.27;4.17;;;;;;;;;;4985966;28;20191;-54
2022/09/28 08:06:13;;;;;;;5.37;4.30;;;;;;;;;;4987254;28;20209;-55
2022/09/28 08:08:44;;;;;;;4.27;3.80;;;;;;;;;;4990225;28;20171;-55
2022/09/28 08:11:11;;;;;;;5.20;4.80;;;;;;;;;;4972352;28;20622;-55
2022/09/28 08:13:37;;;;;;;4.80;4.40;;;;;;;;;;4990245;28;20225;-55
2022/09/28 08:16:06;;;;;;;5.07;4.60;;;;;;;;;;4987750;28;20715;-55
2022/09/28 08:18:33;;;;;;;5.17;4.67;;;;;;;;;;4988970;28;20405;-54
2022/09/28 08:23:44;;;;;;;5.23;4.73;;;;;;;;;;4981715;28;20202;-55
2022/09/28 08:26:10;;;;;;;5.17;4.77;;;;;;;;;;4990489;28;20175;-55
2022/09/28 08:28:36;;;;;;;5.43;4.93;;;;;;;;;;4988654;28;20265;-55
2022/09/28 08:31:02;;;;;;;5.33;4.57;;;;;;;;;;4988974;28;20183;-55
2022/09/28 08:33:28;;;;;;;5.67;5.17;;;;;;;;;;5008872;28;20767;-54
2022/09/28 08:35:56;;;;;;;5.70;5.20;;;;;;;;;;4989443;28;20171;-55
2022/09/28 08:38:22;;;;;;;5.70;5.20;;;;;;;;;;4982405;28;20207;-54
2022/09/28 08:40:51;;;;;;;5.67;5.00;;;;;;;;;;4980579;28;20233;-54
2022/09/28 08:43:36;;;;;;;5.43;4.80;;;;;;;;;;4986232;28;20222;-56
2022/09/28 08:46:02;;;;;;;5.40;5.00;;;;;;;;;;4988282;28;20179;-55
2022/09/28 08:48:52;;;;;;;4.73;4.33;;;;;;;;;;4984792;28;20196;-55
2022/09/28 08:51:27;;;;;;;4.80;4.40;;;;;;;;;;4988753;28;20183;-54
2022/09/28 08:54:04;;;;;;;4.87;4.47;;;;;;;;;;4986350;28;20186;-55
2022/09/28 08:56:33;;;;;;;5.03;4.63;;;;;;;;;;4984569;28;20504;-55
2022/09/28 08:59:01;;;;;;;5.50;4.47;;;;;;;;;;4984705;28;20226;-54
2022/09/28 09:01:30;;;;;;;5.03;4.63;;;;;;;;;;4985545;28;20194;-55
2022/09/28 09:03:57;;;;;;;7.97;4.10;;;;;;;;;;4984165;28;20195;-55
2022/09/28 09:06:33;;;;;;;4.10;3.80;;;;;;;;;;4990375;28;20202;-55
2022/09/28 09:09:19;;;;;;;5.03;4.50;;;;;;;;;;4987548;28;20163;-54
2022/09/28 09:11:57;;;;;;;4.47;4.07;;;;;;;;;;4952800;28;20652;-54
2022/09/28 09:14:41;;;;;;;4.50;4.07;;;;;;;;;;4985234;28;20205;-55
2022/09/28 09:17:17;;;;;;;5.33;3.77;;;;;;;;;;4968054;28;20685;-54
2022/09/28 09:19:43;;;;;;;5.43;4.40;;;;;;;;;;4987831;28;20156;-54
2022/09/28 09:22:16;;;;;;;4.23;3.83;;;;;;;;;;4986856;28;20269;-55
2022/09/28 09:24:42;;;;;;;4.20;3.90;;;;;;;;;;4977475;28;20173;-54
2022/09/28 09:27:23;;;;;;;4.97;4.47;;;;;;;;;;4977070;28;20200;-54
2022/09/28 09:29:52;;;;;;;4.70;4.30;;;;;;;;;;4985771;28;20240;-55
2022/09/28 09:32:24;;;;;;;5.10;4.63;;;;;;;;;;4992944;28;20251;-55
2022/09/28 09:35:00;;;;;;;4.90;4.50;;;;;;;;;;4983712;28;20178;-54
2022/09/28 09:37:33;;;;;;;5.17;4.70;;;;;;;;;;4971961;28;20332;-55
2022/09/28 09:40:17;;;;;;;5.50;5.00;;;;;;;;;;4981218;28;20186;-53
2022/09/28 09:42:50;;;;;;;5.23;4.83;;;;;;;;;;4987839;28;20193;-55
2022/09/28 09:45:31;;;;;;;4.93;4.47;;;;;;;;;;4980224;28;20179;-55
2022/09/28 09:48:21;;;;;;;5.97;4.67;;;;;;;;;;4982069;28;20689;-55
2022/09/28 09:51:13;;;;;;;5.53;5.03;;;;;;;;;;4957581;28;20258;-55
2022/09/28 09:53:45;;;;;;;5.40;5.00;;;;;;;;;;4958472;28;20655;-54
2022/09/28 09:56:17;;;;;;;5.47;5.07;;;;;;;;;;4977282;28;20676;-55
2022/09/28 09:58:47;;;;;;;6.57;5.87;;;;;;;;;;4975121;28;20187;-56
2022/09/28 10:01:15;;;;;;;5.87;5.07;;;;;;;;;;4983246;28;20183;-55
2022/09/28 10:03:44;;;;;;;5.47;5.07;;;;;;;;;;4982407;28;20187;-55
2022/09/28 10:06:12;;;;;;;5.33;4.93;;;;;;;;;;4978107;28;20182;-55
2022/09/28 10:08:41;;;;;;;5.57;5.07;;;;;;;;;;4973618;28;20649;-54
2022/09/28 10:11:18;;;;;;;5.80;5.30;;;;;;;;;;4973993;28;20639;-56
2022/09/28 10:13:47;;;;;;;5.10;4.67;;;;;;;;;;4978841;28;20200;-55
2022/09/28 10:16:13;;;;;;;4.87;4.47;;;;;;;;;;4981839;28;20194;-54
2022/09/28 10:18:39;;;;;;;4.57;4.17;;;;;;;;;;4982656;28;20194;-56
2022/09/28 10:21:05;;;;;;;6.33;4.90;;;;;;;;;;4978491;28;20509;-55
2022/09/28 10:23:36;;;;;;;5.93;5.33;;;;;;;;;;4985974;28;20779;-54
2022/09/28 10:26:05;;;;;;;5.37;4.87;;;;;;;;;;4977191;28;20188;-56
2022/09/28 10:28:54;;;;;;;4.83;4.43;;;;;;;;;;4978659;28;20187;-55
2022/09/28 10:31:37;;;;;;;4.83;4.43;;;;;;;;;;4958510;28;20191;-55
2022/09/28 10:34:04;;;;;;;5.47;4.23;;;;;;;;;;4982343;28;20237;-54
2022/09/28 10:36:37;;;;;;;4.20;3.90;;;;;;;;;;4984586;28;20544;-56
2022/09/28 10:39:03;;;;;;;5.43;3.60;;;;;;;;;;4968101;28;20608;-55
2022/09/28 10:41:30;;;;;;;4.10;3.77;;;;;;;;;;4976669;28;20193;-56
2022/09/28 10:44:10;;;;;;;4.10;3.80;;;;;;;;;;4978122;28;20187;-55
2022/09/28 10:46:38;;;;;;;4.70;3.67;;;;;;;;;;4986143;28;20278;-55
2022/09/28 10:49:16;;;;;;;3.97;3.40;;;;;;;;;;4977931;28;20558;-55
2022/09/28 10:51:44;;;;;;;5.20;3.70;;;;;;;;;;4977528;28;20187;-55
2022/09/28 10:54:17;;;;;;;3.90;3.60;;;;;;;;;;4979128;28;20191;-55
2022/09/28 10:56:44;;;;;;;3.70;3.30;;;;;;;;;;4995354;28;20786;-55
2022/09/28 10:59:43;;;;;;;3.50;3.20;;;;;;;;;;4996566;28;20190;-55
2022/09/28 11:02:27;;;;;;;3.70;3.40;;;;;;;;;;4968349;28;20740;-56
2022/09/28 11:04:55;;;;;;;3.83;3.53;;;;;;;;;;4976789;28;20182;-55
2022/09/28 11:07:26;;;;;;;4.00;3.60;;;;;;;;;;4996349;28;20644;-55
2022/09/28 11:09:53;;;;;;;3.50;3.20;;;;;;;;;;4986894;28;20191;-56
2022/09/28 11:12:24;;;;;;;3.50;3.20;;;;;;;;;;4990646;28;20409;-55
2022/09/28 11:15:01;;;;;;;3.27;2.97;;;;;;;;;;4976583;28;20280;-56
2022/09/28 11:17:37;;;;;;;3.83;2.93;;;;;;;;;;5006971;28;20555;-55
2022/09/28 11:20:22;;;;;;;7.30;3.50;;;;;;;;;;4999491;28;20178;-54
2022/09/28 11:22:48;;;;;;;3.30;3.00;;;;;;;;;;4989905;28;20191;-56
2022/09/28 11:25:17;;;;;;;2.93;2.63;;;;;;;;;;4986347;28;20670;-55
2022/09/28 11:28:04;;;;;;;4.33;3.30;;;;;;;;;;4990625;28;20214;-55
2022/09/28 11:30:41;;;;;;;3.13;2.83;;;;;;;;;;4970310;28;20524;-56
2022/09/28 11:33:13;;;;;;;3.40;3.10;;;;;;;;;;4971940;28;20306;-56
2022/09/28 11:36:01;;;;;;;3.03;2.83;;;;;;;;;;4986987;28;20206;-55
2022/09/28 11:38:33;;;;;;;2.97;2.77;;;;;;;;;;4988060;28;20207;-54
2022/09/28 11:41:10;;;;;;;3.80;3.40;;;;;;;;;;4971613;28;20278;-55
2022/09/28 11:43:57;;;;;;;3.97;3.67;;;;;;;;;;4987001;28;20615;-56
2022/09/28 11:46:30;;;;;;;3.10;2.80;;;;;;;;;;4990498;28;20222;-56
2022/09/28 11:49:00;;;;;;;3.07;2.80;;;;;;;;;;4987985;28;20172;-55
2022/09/28 11:51:28;;;;;;;2.97;2.77;;;;;;;;;;4990767;28;20616;-55
2022/09/28 11:54:00;;;;;;;3.33;3.13;;;;;;;;;;5004283;28;20641;-56
2022/09/28 11:56:38;;;;;;;2.90;2.70;;;;;;;;;;5010341;28;20162;-55
2022/09/28 11:59:04;;;;;;;2.87;2.67;;;;;;;;;;5005896;28;20208;-55
2022/09/28 12:01:42;;;;;;;2.77;2.53;;;;;;;;;;4990590;28;20163;-56
2022/09/28 12:04:14;;;;;;;3.50;3.30;;;;;;;;;;4987796;28;20667;-56
2022/09/28 12:06:46;;;;;;;4.50;2.93;;;;;;;;;;4984329;28;20725;-54
2022/09/28 12:09:24;;;;;;;4.07;2.83;;;;;;;;;;4971768;28;20179;-56
2022/09/28 12:11:55;;;;;;;2.87;2.60;;;;;;;;;;4987193;28;20183;-54
2022/09/28 12:14:26;;;;;;;4.90;3.03;;;;;;;;;;4986942;28;20175;-54
2022/09/28 12:17:04;;;;;;;2.80;2.60;;;;;;;;;;4994854;28;20186;-55
2022/09/28 12:19:37;;;;;;;2.70;2.50;;;;;;;;;;4980774;28;20552;-54
2022/09/28 12:22:09;;;;;;;3.03;2.83;;;;;;;;;;4971288;28;20282;-55
2022/09/28 12:24:53;;;;;;;2.30;2.20;;;;;;;;;;4989678;28;20194;-55
2022/09/28 12:27:31;;;;;;;2.63;2.43;;;;;;;;;;5008475;28;20209;-55
2022/09/28 12:30:26;;;;;;;3.07;2.77;;;;;;;;;;4997413;28;21089;-55
2022/09/28 12:32:58;;;;;;;2.80;2.60;;;;;;;;;;4993020;28;20756;-55
2022/09/28 12:35:24;;;;;;;3.67;2.53;;;;;;;;;;4987447;28;20183;-55
2022/09/28 12:38:11;;;;;;;4.57;2.37;;;;;;;;;;4992741;28;20202;-55
2022/09/28 12:40:41;;;;;;;3.00;2.70;;;;;;;;;;4957662;28;20191;-55
2022/09/28 12:43:24;;;;;;;2.87;2.57;;;;;;;;;;4968182;28;20168;-55
2022/09/28 12:46:08;;;;;;;2.60;2.33;;;;;;;;;;4987074;28;20417;-55
2022/09/28 12:48:48;;;;;;;3.30;2.60;;;;;;;;;;4985421;28;20187;-55
2022/09/28 12:51:20;;;;;;;2.70;2.50;;;;;;;;;;4981222;28;20266;-55
2022/09/28 12:53:54;;;;;;;3.43;2.50;;;;;;;;;;4988314;28;20885;-55
2022/09/28 12:56:23;;;;;;;3.93;2.53;;;;;;;;;;4981836;28;20194;-55
2022/09/28 12:59:05;;;;;;;3.33;2.90;;;;;;;;;;4976400;28;20190;-56
2022/09/28 13:01:42;;;;;;;2.43;2.30;;;;;;;;;;4986271;28;20188;-55
2022/09/28 13:04:25;;;;;;;2.40;2.30;;;;;;;;;;4986072;28;20183;-55
2022/09/28 13:06:54;;;;;;;2.13;1.93;;;;;;;;;;4985933;28;20265;-55
2022/09/28 13:09:22;;;;;;;2.30;2.10;;;;;;;;;;4983782;28;20187;-56
2022/09/28 13:11:55;;;;;;;3.70;2.43;;;;;;;;;;4983552;28;20183;-55
2022/09/28 13:14:30;;;;;;;2.40;2.20;;;;;;;;;;4980530;28;20184;-54
2022/09/28 13:17:29;;;;;;;2.90;2.40;;;;;;;;;;4971478;28;20185;-54
2022/09/28 13:19:58;;;;;;;2.07;1.97;;;;;;;;;;4951032;28;20277;-55
2022/09/28 13:22:35;;;;;;;2.20;2.00;;;;;;;;;;4985823;28;20463;-55
2022/09/28 13:25:04;;;;;;;2.00;1.90;;;;;;;;;;4993348;28;20198;-55
2022/09/28 13:27:35;;;;;;;2.13;2.03;;;;;;;;;;4985429;28;20306;-55
2022/09/28 13:30:05;;;;;;;2.43;2.23;;;;;;;;;;4992318;28;20608;-55
2022/09/28 13:32:36;;;;;;;3.30;2.37;;;;;;;;;;4968338;28;20292;-55
2022/09/28 13:35:02;;;;;;;2.53;2.10;;;;;;;;;;4983255;28;20191;-56
2022/09/28 13:37:29;;;;;;;7.27;2.00;;;;;;;;;;4986946;28;20502;-55
2022/09/28 13:39:57;;;;;;;2.70;2.50;;;;;;;;;;4987199;28;20198;-55
2022/09/28 13:42:25;;;;;;;2.57;2.37;;;;;;;;;;4984178;28;20180;-55
2022/09/28 13:45:15;;;;;;;3.37;2.40;;;;;;;;;;4974763;28;20231;-55
2022/09/28 13:47:41;;;;;;;2.17;1.90;;;;;;;;;;4983860;28;20211;-56
2022/09/28 13:50:13;;;;;;;2.17;2.07;;;;;;;;;;4992329;28;20542;-55
2022/09/28 13:52:45;;;;;;;2.40;2.20;;;;;;;;;;4993261;28;20922;-56
2022/09/28 13:55:22;;;;;;;2.23;2.10;;;;;;;;;;4985666;28;20660;-56
2022/09/28 13:58:05;;;;;;;2.23;2.00;;;;;;;;;;4985421;28;20269;-55
2022/09/28 14:00:37;;;;;;;2.30;2.10;;;;;;;;;;4987797;28;20816;-55
2022/09/28 14:03:33;;;;;;;2.90;2.20;;;;;;;;;;4986205;28;20278;-55
2022/09/28 14:05:59;;;;;;;2.07;1.83;;;;;;;;;;4932779;28;20197;-56
2022/09/28 14:08:32;;;;;;;2.23;1.93;;;;;;;;;;4995265;28;20292;-55
2022/09/28 14:11:17;;;;;;;2.23;1.80;;;;;;;;;;4986703;28;20603;-56
2022/09/28 14:13:43;;;;;;;2.43;2.20;;;;;;;;;;4987466;28;20565;-56
2022/09/28 14:16:26;;;;;;;1.90;1.77;;;;;;;;;;4996838;28;20184;-55
2022/09/28 14:19:11;;;;;;;2.07;1.90;;;;;;;;;;4985607;28;20249;-55
2022/09/28 14:21:57;;;;;;;1.80;1.70;;;;;;;;;;4988593;28;20218;-55
2022/09/28 14:24:30;;;;;;;1.93;1.83;;;;;;;;;;4984912;28;20187;-55
2022/09/28 14:27:09;;;;;;;2.57;1.70;;;;;;;;;;4968725;28;20203;-54
2022/09/28 14:29:37;;;;;;;2.13;1.90;;;;;;;;;;4986835;28;20613;-55
2022/09/28 14:32:09;;;;;;;2.70;2.50;;;;;;;;;;4988455;28;20746;-55
2022/09/28 14:34:46;;;;;;;2.80;2.60;;;;;;;;;;4995522;28;20222;-55
2022/09/28 14:43:28;;;;;;;3.97;2.93;;;;;;;;;;4990462;28;21102;-53
2022/09/28 14:46:10;;;;;;;2.77;2.57;;;;;;;;;;4989851;28;20179;-53
2022/09/28 14:48:42;;;;;;;2.53;2.33;;;;;;;;;;4989201;28;20203;-53
2022/09/28 14:51:33;;;;;;;2.90;2.60;;;;;;;;;;4991704;28;20263;-53
2022/09/28 14:54:09;;;;;;;2.70;2.50;;;;;;;;;;4985364;28;21001;-53
2022/09/28 14:56:44;;;;;;;2.80;2.60;;;;;;;;;;4997067;28;20178;-53
2022/09/28 14:59:34;;;;;;;4.43;2.27;;;;;;;;;;4988925;28;20186;-53
2022/09/28 15:02:00;;;;;;;2.63;2.43;;;;;;;;;;4994754;28;20194;-53
2022/09/28 15:04:29;;;;;;;2.70;2.20;;;;;;;;;;4991910;28;20466;-53
2022/09/28 15:06:56;;;;;;;3.93;2.23;;;;;;;;;;4993350;28;20221;-52
2022/09/28 15:09:29;;;;;;;2.83;1.90;;;;;;;;;;4998728;28;20662;-53
2022/09/28 15:11:59;;;;;;;1.83;1.73;;;;;;;;;;4996683;28;20171;-53
2022/09/28 15:14:27;;;;;;;1.57;1.47;;;;;;;;;;4991826;28;20268;-53
2022/09/28 15:16:54;;;;;;;3.03;1.60;;;;;;;;;;5011571;28;20657;-53
2022/09/28 15:19:31;;;;;;;2.60;1.90;;;;;;;;;;4995451;28;20175;-52